createdAt,value
2023-02-05T00:00:35.659Z,13.95
2023-02-05T00:03:05.585Z,9.35
2023-02-05T00:05:34.347Z,9.20
2023-02-05T00:08:02.964Z,10.57
2023-02-05T00:10:31.480Z,12.23
2023-02-05T00:13:00.045Z,6.55
2023-02-05T00:15:28.921Z,9.35
2023-02-05T00:17:57.492Z,6.90
2023-02-05T00:20:28.620Z,12.05
2023-02-05T00:22:57.105Z,4.95
2023-02-05T00:25:25.390Z,5.03
2023-02-05T00:27:54.037Z,20.55
2023-02-05T00:30:22.752Z,16.75
2023-02-05T00:32:51.291Z,17.95
2023-02-05T00:35:20.309Z,6.03
2023-02-05T00:37:50.143Z,7.88
2023-02-05T00:40:20.009Z,8.57
2023-02-05T00:42:48.965Z,8.05
2023-02-05T00:45:17.391Z,9.35
2023-02-05T00:47:45.604Z,8.30
2023-02-05T00:50:14.145Z,9.95
2023-02-05T00:52:42.774Z,12.60
2023-02-05T00:55:12.366Z,9.45
2023-02-05T00:57:41.164Z,17.80
2023-02-05T01:00:11.635Z,12.32
2023-02-05T01:02:40.186Z,10.38
2023-02-05T01:05:09.352Z,15.32
2023-02-05T01:07:37.994Z,8.57
2023-02-05T01:10:07.642Z,9.05
2023-02-05T01:12:37.377Z,8.20
2023-02-05T01:15:09.106Z,9.35
2023-02-05T01:17:37.343Z,13.20
2023-02-05T01:20:06.866Z,12.57
2023-02-05T01:22:35.503Z,8.45
2023-02-05T01:25:04.305Z,5.35
2023-02-05T01:27:33.877Z,4.20
2023-02-05T01:30:04.391Z,4.00
2023-02-05T01:32:33.043Z,7.45
2023-02-05T01:35:01.285Z,6.20
2023-02-05T01:37:29.601Z,9.18
2023-02-05T01:39:58.910Z,8.20
2023-02-05T01:42:29.244Z,5.35
2023-02-05T01:46:08.047Z,9.48
2023-02-05T01:48:43.455Z,11.15
2023-02-05T01:51:15.414Z,4.28
2023-02-05T01:53:46.515Z,11.40
2023-02-05T01:56:21.374Z,6.07
2023-02-05T01:58:55.598Z,4.68
2023-02-05T02:01:25.124Z,6.70
2023-02-05T02:03:58.314Z,13.82
2023-02-05T02:06:26.867Z,9.40
2023-02-05T02:08:55.430Z,7.75
2023-02-05T02:11:27.629Z,8.70
2023-02-05T02:14:00.123Z,10.23
2023-02-05T02:16:30.006Z,12.20
2023-02-05T02:19:00.330Z,8.70
2023-02-05T02:22:12.016Z,8.85
2023-02-05T02:25:33.754Z,13.63
2023-02-05T02:28:10.751Z,8.60
2023-02-05T02:30:44.939Z,11.10
2023-02-05T02:33:21.986Z,10.00
2023-02-05T02:36:00.454Z,7.25
2023-02-05T02:38:34.170Z,9.25
2023-02-05T02:41:12.663Z,8.38
2023-02-05T02:43:51.135Z,21.17
2023-02-05T02:46:25.872Z,8.40
2023-02-05T02:48:58.335Z,9.98
2023-02-05T02:51:29.918Z,10.70
2023-02-05T02:54:01.176Z,8.00
2023-02-05T02:56:32.120Z,14.30
2023-02-05T02:59:07.491Z,8.07
2023-02-05T03:01:46.919Z,7.03
2023-02-05T03:04:24.995Z,12.52
2023-02-05T03:06:58.049Z,12.57
2023-02-05T03:09:33.362Z,8.93
2023-02-05T03:12:01.973Z,10.45
2023-02-05T03:14:32.347Z,18.52
2023-02-05T03:17:02.751Z,15.32
2023-02-05T03:19:33.018Z,16.00
2023-02-05T03:22:05.702Z,13.95
2023-02-05T03:24:34.346Z,11.77
2023-02-05T03:27:02.996Z,7.20
2023-02-05T03:29:38.883Z,12.35
2023-02-05T03:32:28.057Z,8.25
2023-02-05T03:35:14.682Z,9.88
2023-02-05T03:37:57.206Z,4.25
2023-02-05T03:40:39.133Z,10.45
2023-02-05T03:43:17.665Z,6.70
2023-02-05T03:45:59.333Z,7.88
2023-02-05T03:48:48.474Z,6.60
2023-02-05T03:51:33.911Z,8.27
2023-02-05T03:54:12.817Z,10.55
2023-02-05T03:56:52.906Z,8.50
2023-02-05T03:59:23.050Z,10.10
2023-02-05T04:01:54.724Z,9.52
2023-02-05T04:04:23.447Z,15.02
2023-02-05T04:06:54.323Z,11.98
2023-02-05T04:09:23.818Z,8.98
2023-02-05T04:11:53.511Z,13.00
2023-02-05T04:14:22.682Z,14.57
2023-02-05T04:16:54.074Z,9.25
2023-02-05T04:19:25.095Z,12.15
2023-02-05T04:21:55.568Z,7.93
2023-02-05T04:24:25.184Z,13.35
2023-02-05T04:26:54.353Z,9.00
2023-02-05T04:29:22.877Z,11.25
2023-02-05T04:31:54.880Z,11.68
2023-02-05T04:34:23.116Z,11.15
2023-02-05T04:36:51.810Z,6.55
2023-02-05T04:39:20.124Z,6.43
2023-02-05T04:41:48.735Z,9.35
2023-02-05T04:44:16.943Z,8.45
2023-02-05T04:46:45.275Z,6.75
2023-02-05T04:49:14.867Z,8.32
2023-02-05T04:51:43.390Z,8.60
2023-02-05T04:54:12.177Z,9.43
2023-02-05T04:56:40.946Z,10.75
2023-02-05T04:59:09.558Z,8.13
2023-02-05T05:01:38.155Z,6.55
2023-02-05T05:04:06.706Z,9.82
2023-02-05T05:06:36.261Z,5.90
2023-02-05T05:09:04.939Z,5.80
2023-02-05T05:11:33.454Z,8.38
2023-02-05T05:14:01.983Z,5.28
2023-02-05T05:16:30.467Z,5.05
2023-02-05T05:18:58.731Z,4.32
2023-02-05T05:21:27.213Z,10.70
2023-02-05T05:23:56.792Z,8.20
2023-02-05T05:26:25.304Z,5.97
2023-02-05T05:28:55.120Z,8.38
2023-02-05T05:31:24.361Z,6.45
2023-02-05T05:33:53.537Z,7.30
2023-02-05T05:36:22.034Z,9.57
2023-02-05T05:38:50.540Z,7.55
2023-02-05T05:41:41.341Z,6.80
2023-02-05T05:44:10.701Z,5.35
2023-02-05T05:46:40.432Z,7.35
2023-02-05T05:49:08.979Z,6.55
2023-02-05T05:51:37.693Z,10.68
2023-02-05T05:54:06.183Z,9.73
2023-02-05T05:56:36.216Z,7.07
2023-02-05T05:59:05.193Z,4.38
2023-02-05T06:01:33.942Z,10.00
2023-02-05T06:04:04.313Z,7.95
2023-02-05T06:06:33.021Z,6.70
2023-02-05T06:09:01.556Z,6.80
2023-02-05T06:11:30.092Z,11.55
2023-02-05T06:13:59.778Z,6.75
2023-02-05T06:16:28.093Z,8.23
2023-02-05T06:18:56.907Z,10.30
2023-02-05T06:21:25.368Z,13.82
2023-02-05T06:23:53.880Z,6.60
2023-02-05T06:26:22.366Z,10.50
2023-02-05T06:28:51.219Z,10.70
2023-02-05T06:31:21.013Z,11.15
2023-02-05T06:33:49.556Z,14.10
2023-02-05T06:36:18.054Z,10.35
2023-02-05T06:38:46.580Z,7.07
2023-02-05T06:41:14.758Z,10.10
2023-02-05T06:43:43.322Z,14.20
2023-02-05T06:46:12.463Z,7.63
2023-02-05T06:48:42.047Z,4.25
2023-02-05T06:51:10.609Z,5.78
2023-02-05T06:53:39.121Z,6.90
2023-02-05T06:56:08.079Z,8.57
2023-02-05T06:58:36.582Z,11.23
2023-02-05T07:01:05.989Z,6.82
2023-02-05T07:03:34.866Z,9.10
2023-02-05T07:06:06.503Z,17.60
2023-02-05T07:08:35.480Z,9.13
2023-02-05T07:11:04.214Z,6.40
2023-02-05T07:13:32.503Z,13.00
2023-02-05T07:16:05.243Z,8.88
2023-02-05T07:18:34.298Z,6.28
2023-02-05T07:21:08.355Z,7.85
2023-02-05T07:23:37.089Z,5.90
2023-02-05T07:26:09.628Z,11.07
2023-02-05T07:28:38.396Z,7.05
2023-02-05T07:31:08.141Z,5.70
2023-02-05T07:33:37.351Z,9.63
2023-02-05T07:36:09.270Z,8.35
2023-02-05T07:38:38.728Z,8.52
2023-02-05T07:41:08.130Z,10.82
2023-02-05T07:43:36.544Z,17.40
2023-02-05T07:46:07.808Z,9.95
2023-02-05T07:48:36.818Z,14.13
2023-02-05T07:51:07.556Z,11.65
2023-02-05T07:53:36.107Z,10.55
2023-02-05T07:56:05.058Z,15.73
2023-02-05T07:58:33.628Z,8.88
2023-02-05T08:01:02.982Z,16.77
2023-02-05T08:03:31.836Z,12.93
2023-02-05T08:06:00.796Z,12.88
2023-02-05T08:08:30.500Z,13.98
2023-02-05T08:11:00.945Z,9.45
2023-02-05T08:13:30.345Z,7.30
2023-02-05T08:16:01.509Z,8.07
2023-02-05T08:18:30.115Z,14.90
2023-02-05T08:20:58.647Z,15.48
2023-02-05T08:23:27.795Z,11.50
2023-02-05T08:25:59.409Z,14.35
2023-02-05T08:28:29.235Z,11.35
2023-02-05T08:30:59.601Z,15.98
2023-02-05T08:33:28.225Z,13.85
2023-02-05T08:35:58.429Z,13.32
2023-02-05T08:38:26.619Z,10.48
2023-02-05T08:40:54.799Z,7.95
2023-02-05T08:43:24.910Z,15.05
2023-02-05T08:45:53.477Z,16.38
2023-02-05T08:48:22.944Z,13.98
2023-02-05T08:50:51.800Z,11.38
2023-02-05T08:53:21.776Z,17.77
2023-02-05T08:55:56.962Z,18.45
2023-02-05T08:58:26.921Z,12.73
2023-02-05T09:01:00.628Z,12.20
2023-02-05T09:03:30.497Z,10.98
2023-02-05T09:05:59.288Z,19.92
2023-02-05T09:08:31.122Z,19.08
2023-02-05T09:10:59.829Z,14.38
2023-02-05T09:13:29.715Z,12.50
2023-02-05T09:15:57.989Z,16.25
2023-02-05T09:18:26.518Z,17.73
2023-02-05T09:20:55.218Z,20.63
2023-02-05T09:23:23.745Z,13.07
2023-02-05T09:25:52.286Z,13.10
2023-02-05T09:28:20.888Z,14.43
2023-02-05T09:30:51.610Z,17.20
2023-02-05T09:33:20.380Z,9.13
2023-02-05T09:35:48.889Z,19.38
2023-02-05T09:38:18.600Z,14.45
2023-02-05T09:40:59.253Z,11.40
2023-02-05T09:43:46.885Z,16.95
2023-02-05T09:46:27.495Z,23.85
2023-02-05T09:49:01.939Z,17.98
2023-02-05T09:51:35.989Z,17.40
2023-02-05T09:54:16.195Z,18.00
2023-02-05T09:56:46.753Z,18.42
2023-02-05T09:59:18.215Z,19.52
2023-02-05T10:01:52.902Z,17.02
2023-02-05T10:04:21.527Z,13.65
2023-02-05T10:07:20.656Z,14.43
2023-02-05T10:10:24.559Z,21.08
2023-02-05T10:13:24.839Z,21.15
2023-02-05T10:16:15.084Z,13.05
2023-02-05T10:19:09.974Z,14.77
2023-02-05T10:22:02.424Z,14.85
2023-02-05T10:25:05.663Z,15.77
2023-02-05T10:27:44.493Z,16.70
2023-02-05T10:30:22.257Z,18.25
2023-02-05T10:32:58.643Z,14.90
2023-02-05T10:35:37.541Z,22.27
2023-02-05T10:38:11.518Z,21.33
2023-02-05T10:40:44.024Z,14.95
2023-02-05T10:43:22.483Z,16.45
2023-02-05T10:45:52.418Z,19.58
2023-02-05T10:48:40.696Z,20.67
2023-02-05T10:51:15.999Z,17.33
2023-02-05T10:53:45.095Z,17.17
2023-02-05T10:56:19.782Z,26.73
2023-02-05T10:58:54.043Z,18.02
2023-02-05T11:01:24.928Z,15.48
2023-02-05T11:03:58.929Z,22.90
2023-02-05T11:06:33.513Z,24.10
2023-02-05T11:11:32.914Z,22.52
2023-02-05T11:14:05.500Z,17.23
2023-02-05T11:16:40.236Z,22.08
2023-02-05T11:19:21.484Z,26.42
2023-02-05T11:21:55.095Z,25.65
2023-02-05T11:24:28.485Z,26.38
2023-02-05T11:27:32.007Z,18.58
2023-02-05T11:30:52.177Z,27.70
2023-02-05T11:33:31.206Z,19.13
2023-02-05T11:36:03.475Z,24.38
2023-02-05T11:38:45.399Z,22.25
2023-02-05T11:41:26.486Z,27.17
2023-02-05T11:43:56.336Z,22.40
2023-02-05T11:46:27.165Z,18.27
2023-02-05T11:49:01.836Z,21.45
2023-02-05T11:54:22.039Z,20.42
2023-02-05T11:57:28.223Z,19.23
2023-02-05T11:59:58.678Z,21.98
2023-02-05T12:02:33.882Z,22.40
2023-02-05T12:05:14.223Z,21.38
2023-02-05T12:07:48.938Z,21.55
2023-02-05T12:10:26.693Z,17.88
2023-02-05T12:13:10.127Z,23.48
2023-02-05T12:15:46.044Z,23.92
2023-02-05T12:18:29.458Z,23.90
2023-02-05T12:21:14.246Z,24.98
2023-02-05T12:24:17.064Z,16.70
2023-02-05T12:26:50.163Z,21.13
2023-02-05T12:29:39.437Z,21.42
2023-02-05T12:32:22.154Z,24.40
2023-02-05T12:35:13.853Z,31.73
2023-02-05T12:37:50.196Z,17.30
2023-02-05T12:40:45.073Z,23.25
2023-02-05T12:43:32.159Z,19.33
2023-02-05T12:46:20.620Z,21.10
2023-02-05T12:49:10.121Z,14.25
2023-02-05T12:51:53.789Z,15.25
2023-02-05T12:54:57.776Z,19.50
2023-02-05T12:57:34.037Z,16.17
2023-02-05T13:00:14.307Z,15.02
2023-02-05T13:02:55.463Z,16.60
2023-02-05T13:05:32.460Z,16.02
2023-02-05T13:08:07.731Z,13.55
2023-02-05T13:10:48.085Z,14.77
2023-02-05T13:13:21.992Z,19.70
2023-02-05T13:16:02.368Z,16.20
2023-02-05T13:18:35.245Z,26.83
2023-02-05T13:21:26.324Z,17.55
2023-02-05T13:24:20.419Z,11.63
2023-02-05T13:27:12.448Z,17.75
2023-02-05T13:29:51.240Z,19.38
2023-02-05T13:32:25.274Z,14.60
2023-02-05T13:34:56.543Z,17.63
2023-02-05T13:37:52.749Z,17.85
2023-02-05T13:40:44.910Z,18.58
2023-02-05T13:44:19.571Z,18.25
2023-02-05T13:47:34.184Z,14.05
2023-02-05T13:50:26.480Z,13.93
2023-02-05T13:53:24.868Z,12.80
2023-02-05T13:56:18.218Z,15.93
2023-02-05T13:58:51.277Z,13.70
2023-02-05T14:01:25.295Z,13.85
2023-02-05T14:04:00.409Z,18.20
2023-02-05T14:06:32.962Z,17.90
2023-02-05T14:09:06.406Z,22.33
2023-02-05T14:11:53.057Z,18.02
2023-02-05T14:14:32.031Z,23.50
2023-02-05T14:17:01.665Z,20.00
2023-02-05T14:19:58.531Z,18.60
2023-02-05T14:22:41.326Z,16.67
2023-02-05T14:26:01.602Z,15.18
2023-02-05T14:28:47.951Z,13.88
2023-02-05T14:31:58.453Z,21.05
2023-02-05T14:34:48.515Z,12.85
2023-02-05T14:37:39.136Z,15.73
2023-02-05T14:40:28.701Z,13.38
2023-02-05T14:43:09.907Z,15.25
2023-02-05T14:45:46.087Z,16.95
2023-02-05T14:48:28.195Z,18.08
2023-02-05T14:51:06.283Z,16.45
2023-02-05T14:53:39.819Z,17.05
2023-02-05T14:56:08.816Z,16.65
2023-02-05T14:58:40.779Z,17.50
2023-02-05T15:01:44.637Z,20.73
2023-02-05T15:04:34.694Z,17.08
2023-02-05T15:07:12.256Z,12.27
2023-02-05T15:09:46.667Z,19.27
2023-02-05T15:12:53.822Z,18.27
2023-02-05T15:15:33.349Z,16.73
2023-02-05T15:18:14.698Z,17.50
2023-02-05T15:20:49.248Z,16.75
2023-02-05T15:23:40.844Z,18.52
2023-02-05T15:26:22.185Z,19.90
2023-02-05T15:29:01.026Z,17.92
2023-02-05T15:31:38.014Z,16.70
2023-02-05T15:34:37.163Z,20.85
2023-02-05T15:37:16.691Z,20.13
2023-02-05T15:39:52.293Z,22.05
2023-02-05T15:42:30.734Z,17.58
2023-02-05T15:44:59.357Z,17.35
2023-02-05T15:47:29.586Z,17.80
2023-02-05T15:50:01.867Z,21.40
2023-02-05T15:52:33.705Z,21.75
2023-02-05T15:55:11.456Z,22.50
2023-02-05T15:57:41.185Z,14.73
2023-02-05T16:00:12.018Z,22.25
2023-02-05T16:02:45.761Z,17.13
2023-02-05T16:05:21.849Z,19.00
2023-02-05T16:07:55.394Z,16.30
2023-02-05T16:10:26.821Z,19.92
2023-02-05T16:13:03.678Z,19.88
2023-02-05T16:15:37.273Z,17.00
2023-02-05T16:18:12.530Z,18.98
2023-02-05T16:20:45.899Z,19.13
2023-02-05T16:23:28.970Z,20.25
2023-02-05T16:26:03.644Z,20.83
2023-02-05T16:28:39.573Z,20.10
2023-02-05T16:31:10.060Z,20.15
2023-02-05T16:33:45.913Z,21.60
2023-02-05T16:36:22.007Z,19.50
2023-02-05T16:38:57.512Z,23.40
2023-02-05T16:41:30.017Z,22.77
2023-02-05T16:44:03.685Z,31.23
2023-02-05T16:46:33.099Z,22.97
2023-02-05T16:49:03.588Z,27.40
2023-02-05T16:51:55.180Z,25.05
2023-02-05T16:54:38.399Z,22.58
2023-02-05T16:57:12.810Z,23.40
2023-02-05T16:59:52.659Z,28.85
2023-02-05T17:02:33.781Z,27.02
2023-02-05T17:05:03.545Z,28.58
2023-02-05T17:07:32.582Z,31.52
2023-02-05T17:10:21.279Z,24.15
2023-02-05T17:12:57.228Z,20.05
2023-02-05T17:15:40.046Z,22.85
2023-02-05T17:18:29.134Z,21.08
2023-02-05T17:21:22.646Z,14.88
2023-02-05T17:23:51.915Z,16.92
2023-02-05T17:26:21.448Z,18.42
2023-02-05T17:28:54.595Z,24.30
2023-02-05T17:31:26.512Z,23.23
2023-02-05T17:33:58.461Z,21.80
2023-02-05T17:36:27.692Z,15.95
2023-02-05T17:38:56.368Z,21.77
2023-02-05T17:41:44.531Z,19.33
2023-02-05T17:44:14.160Z,16.60
2023-02-05T17:46:44.832Z,15.73
2023-02-05T17:49:13.393Z,15.23
2023-02-05T17:51:42.858Z,15.07
2023-02-05T17:54:16.319Z,17.70
2023-02-05T17:56:45.500Z,18.20
2023-02-05T17:59:17.472Z,13.38
2023-02-05T18:01:47.812Z,12.90
2023-02-05T18:04:18.575Z,13.52
2023-02-05T18:06:49.596Z,19.13
2023-02-05T18:09:19.839Z,18.25
2023-02-05T18:11:48.365Z,15.15
2023-02-05T18:14:16.883Z,13.27
2023-02-05T18:16:46.558Z,15.50
2023-02-05T18:19:15.101Z,14.50
2023-02-05T18:21:45.865Z,18.38
2023-02-05T18:24:14.958Z,13.77
2023-02-05T18:26:43.935Z,15.77
2023-02-05T18:29:12.427Z,23.67
2023-02-05T18:31:40.998Z,19.10
2023-02-05T18:34:10.601Z,13.35
2023-02-05T18:36:39.137Z,13.55
2023-02-05T18:39:09.890Z,11.65
2023-02-05T18:41:38.882Z,17.02
2023-02-05T18:44:07.432Z,16.90
2023-02-05T18:46:35.844Z,13.73
2023-02-05T18:49:04.493Z,14.77
2023-02-05T18:51:34.080Z,15.52
2023-02-05T18:54:02.750Z,13.13
2023-02-05T18:56:30.969Z,14.75
2023-02-05T18:59:02.874Z,16.08
2023-02-05T19:01:32.330Z,11.73
2023-02-05T19:04:03.652Z,17.92
2023-02-05T19:06:34.133Z,13.75
2023-02-05T19:09:02.848Z,18.83
2023-02-05T19:11:33.950Z,12.88
2023-02-05T19:14:05.041Z,19.42
2023-02-05T19:16:36.475Z,17.08
2023-02-05T19:19:05.787Z,12.52
2023-02-05T19:21:36.218Z,15.50
2023-02-05T19:24:07.246Z,19.60
2023-02-05T19:26:37.664Z,12.85
2023-02-05T19:29:08.339Z,18.10
2023-02-05T19:31:38.268Z,14.85
2023-02-05T19:34:07.625Z,17.08
2023-02-05T19:36:38.070Z,14.85
2023-02-05T19:39:09.814Z,17.17
2023-02-05T19:41:40.094Z,14.77
2023-02-05T19:44:10.230Z,14.57
2023-02-05T19:46:41.862Z,16.10
2023-02-05T19:49:15.319Z,14.82
2023-02-05T19:51:48.000Z,14.15
2023-02-05T19:54:17.232Z,15.30
2023-02-05T19:56:46.028Z,14.15
2023-02-05T19:59:16.249Z,17.55
2023-02-05T20:01:45.536Z,13.13
2023-02-05T20:04:17.528Z,12.80
2023-02-05T20:06:48.063Z,13.93
2023-02-05T20:09:18.012Z,11.48
2023-02-05T20:11:49.768Z,9.02
2023-02-05T20:14:18.572Z,8.93
2023-02-05T20:16:47.373Z,11.57
2023-02-05T20:19:17.982Z,11.77
2023-02-05T20:21:48.594Z,12.80
2023-02-05T20:24:17.558Z,12.07
2023-02-05T20:26:48.712Z,11.07
2023-02-05T20:29:35.256Z,10.52
2023-02-05T20:32:04.125Z,12.13
2023-02-05T20:34:35.980Z,13.27
2023-02-05T20:37:09.375Z,11.95
2023-02-05T20:39:41.775Z,10.13
2023-02-05T20:42:13.540Z,8.40
2023-02-05T20:44:43.355Z,9.50
2023-02-05T20:47:15.529Z,13.45
2023-02-05T20:49:44.221Z,8.95
2023-02-05T20:52:14.189Z,9.18
2023-02-05T20:54:42.979Z,11.05
2023-02-05T20:57:11.494Z,9.55
2023-02-05T20:59:40.069Z,9.85
2023-02-05T21:02:08.850Z,9.82
2023-02-05T21:04:37.716Z,11.20
2023-02-05T21:07:05.958Z,13.65
2023-02-05T21:09:35.818Z,10.60
2023-02-05T21:12:04.157Z,10.55
2023-02-05T21:14:32.964Z,8.90
2023-02-05T21:17:01.516Z,9.32
2023-02-05T21:19:30.188Z,9.07
2023-02-05T21:21:59.177Z,8.95
2023-02-05T21:24:27.863Z,13.10
2023-02-05T21:26:57.705Z,9.30
2023-02-05T21:29:26.248Z,9.95
2023-02-05T21:31:55.540Z,9.18
2023-02-05T21:34:27.315Z,10.07
2023-02-05T21:36:57.104Z,9.23
2023-02-05T21:39:25.985Z,7.97
2023-02-05T21:41:54.639Z,8.50
2023-02-05T21:44:25.400Z,11.45
2023-02-05T21:46:55.228Z,9.15
2023-02-05T21:49:23.903Z,11.32
2023-02-05T21:51:53.247Z,9.75
2023-02-05T21:54:25.467Z,9.00
2023-02-05T21:56:54.260Z,8.55
2023-02-05T21:59:24.323Z,10.48
2023-02-05T22:01:53.119Z,9.10
2023-02-05T22:04:22.045Z,9.25
2023-02-05T22:06:52.174Z,11.43
2023-02-05T22:09:20.710Z,9.50
2023-02-05T22:11:51.307Z,12.10
2023-02-05T22:14:19.947Z,10.65
2023-02-05T22:16:49.498Z,12.20
2023-02-05T22:19:17.788Z,12.98
2023-02-05T22:21:46.331Z,12.10
2023-02-05T22:24:17.231Z,9.65
2023-02-05T22:26:46.902Z,12.55
2023-02-05T22:29:18.122Z,9.73
2023-02-05T22:31:50.088Z,10.77
2023-02-05T22:34:20.207Z,9.52
2023-02-05T22:36:48.657Z,12.35
2023-02-05T22:39:17.238Z,11.57
2023-02-05T22:41:45.790Z,10.13
2023-02-05T22:44:14.373Z,9.90
2023-02-05T22:46:45.273Z,13.35
2023-02-05T22:49:15.719Z,12.93
2023-02-05T22:51:45.768Z,11.20
2023-02-05T22:54:16.041Z,10.57
2023-02-05T22:56:44.881Z,13.73
2023-02-05T22:59:13.534Z,11.93
2023-02-05T23:01:42.272Z,14.63
2023-02-05T23:04:11.635Z,10.00
2023-02-05T23:06:42.356Z,13.40
2023-02-05T23:09:15.116Z,11.07
2023-02-05T23:11:44.253Z,11.32
2023-02-05T23:14:14.419Z,12.45
2023-02-05T23:16:45.274Z,12.65
2023-02-05T23:19:16.881Z,10.93
2023-02-05T23:21:45.588Z,13.07
2023-02-05T23:24:15.615Z,12.48
2023-02-05T23:26:47.040Z,13.20
2023-02-05T23:29:16.900Z,11.00
2023-02-05T23:31:46.014Z,12.45
2023-02-05T23:34:15.246Z,8.38
2023-02-05T23:36:43.746Z,11.13
2023-02-05T23:39:12.330Z,9.98
2023-02-05T23:41:41.894Z,10.70
2023-02-05T23:44:14.176Z,9.40
2023-02-05T23:46:44.012Z,8.75
2023-02-05T23:49:13.092Z,10.35
2023-02-05T23:51:42.253Z,11.32
2023-02-05T23:54:12.417Z,11.50
2023-02-05T23:56:42.632Z,8.63
2023-02-05T23:59:13.770Z,9.68
